Buffalo, North Dakota
Current Conditions -  °F | °C
As of 7:35 AM on Wednesday 22 Oct 2014 (Local Time) from KBAC Reporting Station
Clear Clear  
Wind Chill: 52°   Ceiling: Unl
Heat Index: 52°   Visibility: 10mi
Dew Point: 43°   Wind: 16mph
Humidity: 71%   Direction: 160°SSE
Pressure: 29.8"   Gusts: 20mph
Location:  46.92°N, 97.55°W
Report Text: KBAC 221235Z AUTO 16014G17KT 10SM CLR 11/06 A2980 RMK AO2
Loading
Personal Weather Stations






























Interactive Weather Map
Tropical Storm Tracking
New forecast layout! Learn more

10-Day Weather Forecast

Advertisements
Track Severe Weather on mobile